sensor_id;sensor_type;location;lat;lon;timestamp;P1;durP1;ratioP1;P2;durP2;ratioP2
78646;SDS011;67961;43.460;3.762;2023-09-07T00:00:15;6.53;;;4.20;;
78646;SDS011;67961;43.460;3.762;2023-09-07T00:02:40;7.45;;;3.70;;
78646;SDS011;67961;43.460;3.762;2023-09-07T00:05:06;8.18;;;3.72;;
78646;SDS011;67961;43.460;3.762;2023-09-07T00:07:33;6.68;;;3.75;;
78646;SDS011;67961;43.460;3.762;2023-09-07T00:09:59;7.07;;;3.97;;
78646;SDS011;67961;43.460;3.762;2023-09-07T00:12:25;8.30;;;3.88;;
78646;SDS011;67961;43.460;3.762;2023-09-07T00:14:52;7.20;;;2.90;;
78646;SDS011;67961;43.460;3.762;2023-09-07T00:17:22;6.70;;;3.28;;
78646;SDS011;67961;43.460;3.762;2023-09-07T00:19:47;5.35;;;3.10;;
78646;SDS011;67961;43.460;3.762;2023-09-07T00:22:17;5.80;;;3.45;;
78646;SDS011;67961;43.460;3.762;2023-09-07T00:24:43;4.50;;;3.13;;
78646;SDS011;67961;43.460;3.762;2023-09-07T00:27:10;6.60;;;3.30;;
78646;SDS011;67961;43.460;3.762;2023-09-07T00:29:36;6.43;;;3.25;;
78646;SDS011;67961;43.460;3.762;2023-09-07T00:32:03;5.50;;;3.00;;
78646;SDS011;67961;43.460;3.762;2023-09-07T00:34:29;4.70;;;3.03;;
78646;SDS011;67961;43.460;3.762;2023-09-07T00:36:54;4.03;;;2.75;;
78646;SDS011;67961;43.460;3.762;2023-09-07T00:39:20;3.78;;;2.92;;
78646;SDS011;67961;43.460;3.762;2023-09-07T00:41:45;5.25;;;2.90;;
78646;SDS011;67961;43.460;3.762;2023-09-07T00:44:11;6.53;;;3.72;;
78646;SDS011;67961;43.460;3.762;2023-09-07T00:46:37;7.22;;;3.00;;
78646;SDS011;67961;43.460;3.762;2023-09-07T00:49:02;7.78;;;3.15;;
78646;SDS011;67961;43.460;3.762;2023-09-07T00:51:29;3.78;;;2.75;;
78646;SDS011;67961;43.460;3.762;2023-09-07T00:53:56;3.60;;;2.70;;
78646;SDS011;67961;43.460;3.762;2023-09-07T00:56:22;5.65;;;2.63;;
78646;SDS011;67961;43.460;3.762;2023-09-07T00:58:51;5.85;;;3.30;;
78646;SDS011;67961;43.460;3.762;2023-09-07T01:01:19;5.78;;;3.40;;
78646;SDS011;67961;43.460;3.762;2023-09-07T01:03:45;5.68;;;3.08;;
78646;SDS011;67961;43.460;3.762;2023-09-07T01:06:22;4.57;;;2.80;;
78646;SDS011;67961;43.460;3.762;2023-09-07T01:08:58;5.72;;;3.10;;
78646;SDS011;67961;43.460;3.762;2023-09-07T01:11:35;6.38;;;3.15;;
78646;SDS011;67961;43.460;3.762;2023-09-07T01:14:02;4.75;;;2.83;;
78646;SDS011;67961;43.460;3.762;2023-09-07T01:16:29;7.18;;;3.65;;
78646;SDS011;67961;43.460;3.762;2023-09-07T01:18:55;7.03;;;3.17;;
78646;SDS011;67961;43.460;3.762;2023-09-07T01:21:22;5.70;;;3.10;;
78646;SDS011;67961;43.460;3.762;2023-09-07T01:23:48;6.15;;;3.45;;
78646;SDS011;67961;43.460;3.762;2023-09-07T01:26:15;7.63;;;3.28;;
78646;SDS011;67961;43.460;3.762;2023-09-07T01:28:41;7.03;;;3.40;;
78646;SDS011;67961;43.460;3.762;2023-09-07T01:31:07;7.70;;;3.38;;
78646;SDS011;67961;43.460;3.762;2023-09-07T01:33:32;7.95;;;3.65;;
78646;SDS011;67961;43.460;3.762;2023-09-07T01:35:58;7.40;;;3.63;;
78646;SDS011;67961;43.460;3.762;2023-09-07T01:38:24;8.30;;;3.40;;
78646;SDS011;67961;43.460;3.762;2023-09-07T01:40:50;8.65;;;3.70;;
78646;SDS011;67961;43.460;3.762;2023-09-07T01:43:15;8.73;;;4.25;;
78646;SDS011;67961;43.460;3.762;2023-09-07T01:45:41;6.93;;;4.05;;
78646;SDS011;67961;43.460;3.762;2023-09-07T01:48:10;7.82;;;3.92;;
78646;SDS011;67961;43.460;3.762;2023-09-07T01:50:37;7.95;;;4.13;;
78646;SDS011;67961;43.460;3.762;2023-09-07T01:53:02;7.85;;;4.13;;
78646;SDS011;67961;43.460;3.762;2023-09-07T01:55:29;8.02;;;4.32;;
78646;SDS011;67961;43.460;3.762;2023-09-07T01:57:58;15.43;;;4.95;;
78646;SDS011;67961;43.460;3.762;2023-09-07T02:00:24;7.55;;;4.68;;
78646;SDS011;67961;43.460;3.762;2023-09-07T02:02:50;8.65;;;4.80;;
78646;SDS011;67961;43.460;3.762;2023-09-07T02:05:15;9.73;;;4.35;;
78646;SDS011;67961;43.460;3.762;2023-09-07T02:07:41;10.25;;;4.47;;
78646;SDS011;67961;43.460;3.762;2023-09-07T02:10:07;9.57;;;4.78;;
78646;SDS011;67961;43.460;3.762;2023-09-07T02:12:34;12.55;;;4.60;;
78646;SDS011;67961;43.460;3.762;2023-09-07T02:15:01;7.32;;;4.50;;
78646;SDS011;67961;43.460;3.762;2023-09-07T02:17:30;8.63;;;4.22;;
78646;SDS011;67961;43.460;3.762;2023-09-07T02:19:57;9.23;;;4.57;;
78646;SDS011;67961;43.460;3.762;2023-09-07T02:22:23;8.32;;;4.70;;
78646;SDS011;67961;43.460;3.762;2023-09-07T02:24:49;13.15;;;5.50;;
78646;SDS011;67961;43.460;3.762;2023-09-07T02:27:14;13.85;;;5.15;;
78646;SDS011;67961;43.460;3.762;2023-09-07T02:29:40;10.32;;;4.53;;
78646;SDS011;67961;43.460;3.762;2023-09-07T02:32:06;10.23;;;5.57;;
78646;SDS011;67961;43.460;3.762;2023-09-07T02:34:32;8.60;;;4.95;;
78646;SDS011;67961;43.460;3.762;2023-09-07T02:37:01;6.93;;;4.47;;
78646;SDS011;67961;43.460;3.762;2023-09-07T02:39:28;10.20;;;4.65;;
78646;SDS011;67961;43.460;3.762;2023-09-07T02:41:54;7.20;;;4.13;;
78646;SDS011;67961;43.460;3.762;2023-09-07T02:44:19;8.25;;;4.88;;
78646;SDS011;67961;43.460;3.762;2023-09-07T02:46:45;8.13;;;4.63;;
78646;SDS011;67961;43.460;3.762;2023-09-07T02:49:11;6.88;;;3.97;;
78646;SDS011;67961;43.460;3.762;2023-09-07T02:51:37;8.98;;;4.35;;
78646;SDS011;67961;43.460;3.762;2023-09-07T02:54:03;9.95;;;3.92;;
78646;SDS011;67961;43.460;3.762;2023-09-07T02:56:30;9.63;;;4.40;;
78646;SDS011;67961;43.460;3.762;2023-09-07T02:58:55;10.13;;;4.93;;
78646;SDS011;67961;43.460;3.762;2023-09-07T03:01:21;11.48;;;4.38;;
78646;SDS011;67961;43.460;3.762;2023-09-07T03:03:47;9.00;;;4.13;;
78646;SDS011;67961;43.460;3.762;2023-09-07T03:06:14;7.82;;;4.10;;
78646;SDS011;67961;43.460;3.762;2023-09-07T03:08:41;7.55;;;3.63;;
78646;SDS011;67961;43.460;3.762;2023-09-07T03:11:07;9.55;;;4.43;;
78646;SDS011;67961;43.460;3.762;2023-09-07T03:13:34;7.28;;;4.18;;
78646;SDS011;67961;43.460;3.762;2023-09-07T03:16:00;8.25;;;4.03;;
78646;SDS011;67961;43.460;3.762;2023-09-07T03:18:27;9.30;;;4.07;;
78646;SDS011;67961;43.460;3.762;2023-09-07T03:20:53;6.72;;;4.20;;
78646;SDS011;67961;43.460;3.762;2023-09-07T03:23:23;10.52;;;4.95;;
78646;SDS011;67961;43.460;3.762;2023-09-07T03:25:49;10.38;;;4.38;;
78646;SDS011;67961;43.460;3.762;2023-09-07T03:28:15;6.47;;;4.07;;
78646;SDS011;67961;43.460;3.762;2023-09-07T03:30:40;8.68;;;4.43;;
78646;SDS011;67961;43.460;3.762;2023-09-07T03:33:09;10.00;;;4.57;;
78646;SDS011;67961;43.460;3.762;2023-09-07T03:35:34;9.43;;;5.13;;
78646;SDS011;67961;43.460;3.762;2023-09-07T03:38:00;9.25;;;4.30;;
78646;SDS011;67961;43.460;3.762;2023-09-07T03:40:28;7.57;;;4.25;;
78646;SDS011;67961;43.460;3.762;2023-09-07T03:42:54;8.18;;;4.35;;
78646;SDS011;67961;43.460;3.762;2023-09-07T03:45:20;8.50;;;3.97;;
78646;SDS011;67961;43.460;3.762;2023-09-07T03:47:45;8.55;;;4.07;;
78646;SDS011;67961;43.460;3.762;2023-09-07T03:50:11;9.50;;;3.85;;
78646;SDS011;67961;43.460;3.762;2023-09-07T03:52:37;10.07;;;3.88;;
78646;SDS011;67961;43.460;3.762;2023-09-07T03:55:02;10.55;;;4.30;;
78646;SDS011;67961;43.460;3.762;2023-09-07T03:57:28;6.50;;;3.50;;
78646;SDS011;67961;43.460;3.762;2023-09-07T03:59:54;9.20;;;4.00;;
78646;SDS011;67961;43.460;3.762;2023-09-07T04:02:21;8.63;;;4.28;;
78646;SDS011;67961;43.460;3.762;2023-09-07T04:04:51;6.40;;;4.15;;
78646;SDS011;67961;43.460;3.762;2023-09-07T04:07:18;8.35;;;4.32;;
78646;SDS011;67961;43.460;3.762;2023-09-07T04:09:44;7.20;;;4.00;;
78646;SDS011;67961;43.460;3.762;2023-09-07T04:12:10;4.82;;;3.60;;
78646;SDS011;67961;43.460;3.762;2023-09-07T04:14:36;10.30;;;3.58;;
78646;SDS011;67961;43.460;3.762;2023-09-07T04:17:02;6.45;;;3.47;;
78646;SDS011;67961;43.460;3.762;2023-09-07T04:19:27;6.15;;;3.97;;
78646;SDS011;67961;43.460;3.762;2023-09-07T04:21:53;5.30;;;3.60;;
78646;SDS011;67961;43.460;3.762;2023-09-07T04:24:19;6.38;;;3.63;;
78646;SDS011;67961;43.460;3.762;2023-09-07T04:26:44;6.95;;;3.30;;
78646;SDS011;67961;43.460;3.762;2023-09-07T04:29:11;6.93;;;3.70;;
78646;SDS011;67961;43.460;3.762;2023-09-07T04:31:39;4.82;;;3.53;;
78646;SDS011;67961;43.460;3.762;2023-09-07T04:34:05;7.00;;;3.72;;
78646;SDS011;67961;43.460;3.762;2023-09-07T04:36:30;6.50;;;3.70;;
78646;SDS011;67961;43.460;3.762;2023-09-07T04:38:56;6.65;;;3.78;;
78646;SDS011;67961;43.460;3.762;2023-09-07T04:41:22;6.18;;;3.85;;
78646;SDS011;67961;43.460;3.762;2023-09-07T04:43:48;7.13;;;3.38;;
78646;SDS011;67961;43.460;3.762;2023-09-07T04:46:14;5.88;;;3.45;;
78646;SDS011;67961;43.460;3.762;2023-09-07T04:48:40;5.43;;;3.33;;
78646;SDS011;67961;43.460;3.762;2023-09-07T04:51:06;6.25;;;3.50;;
78646;SDS011;67961;43.460;3.762;2023-09-07T04:53:37;5.88;;;3.63;;
78646;SDS011;67961;43.460;3.762;2023-09-07T04:56:04;5.32;;;3.28;;
78646;SDS011;67961;43.460;3.762;2023-09-07T04:58:30;5.75;;;3.00;;
78646;SDS011;67961;43.460;3.762;2023-09-07T05:01:03;11.50;;;3.97;;
78646;SDS011;67961;43.460;3.762;2023-09-07T05:03:29;6.35;;;3.20;;
78646;SDS011;67961;43.460;3.762;2023-09-07T05:05:55;8.15;;;4.22;;
78646;SDS011;67961;43.460;3.762;2023-09-07T05:08:21;10.43;;;4.20;;
78646;SDS011;67961;43.460;3.762;2023-09-07T05:10:47;9.82;;;4.72;;
78646;SDS011;67961;43.460;3.762;2023-09-07T05:13:13;7.30;;;4.38;;
78646;SDS011;67961;43.460;3.762;2023-09-07T05:15:48;7.85;;;4.00;;
78646;SDS011;67961;43.460;3.762;2023-09-07T05:18:15;9.02;;;4.18;;
78646;SDS011;67961;43.460;3.762;2023-09-07T05:20:41;9.52;;;3.92;;
78646;SDS011;67961;43.460;3.762;2023-09-07T05:23:07;6.80;;;4.13;;
78646;SDS011;67961;43.460;3.762;2023-09-07T05:25:33;8.02;;;4.25;;
78646;SDS011;67961;43.460;3.762;2023-09-07T05:27:58;10.75;;;4.05;;
78646;SDS011;67961;43.460;3.762;2023-09-07T05:30:24;6.25;;;3.85;;
78646;SDS011;67961;43.460;3.762;2023-09-07T05:32:49;5.35;;;3.65;;
78646;SDS011;67961;43.460;3.762;2023-09-07T05:35:15;10.20;;;4.20;;
78646;SDS011;67961;43.460;3.762;2023-09-07T05:37:42;20.15;;;4.60;;
78646;SDS011;67961;43.460;3.762;2023-09-07T05:40:08;9.90;;;3.78;;
78646;SDS011;67961;43.460;3.762;2023-09-07T05:42:34;9.52;;;4.55;;
78646;SDS011;67961;43.460;3.762;2023-09-07T05:44:59;15.98;;;4.85;;
78646;SDS011;67961;43.460;3.762;2023-09-07T05:47:25;9.55;;;4.22;;
78646;SDS011;67961;43.460;3.762;2023-09-07T05:49:51;9.50;;;3.90;;
78646;SDS011;67961;43.460;3.762;2023-09-07T05:52:17;9.50;;;3.90;;
78646;SDS011;67961;43.460;3.762;2023-09-07T05:54:42;5.20;;;3.50;;
78646;SDS011;67961;43.460;3.762;2023-09-07T05:57:08;8.60;;;4.00;;
78646;SDS011;67961;43.460;3.762;2023-09-07T05:59:34;11.50;;;4.15;;
78646;SDS011;67961;43.460;3.762;2023-09-07T06:02:00;8.15;;;3.78;;
78646;SDS011;67961;43.460;3.762;2023-09-07T06:04:25;10.27;;;4.50;;
78646;SDS011;67961;43.460;3.762;2023-09-07T06:06:51;10.82;;;4.07;;
78646;SDS011;67961;43.460;3.762;2023-09-07T06:09:17;10.60;;;4.32;;
78646;SDS011;67961;43.460;3.762;2023-09-07T06:11:42;10.35;;;4.55;;
78646;SDS011;67961;43.460;3.762;2023-09-07T06:14:08;14.20;;;4.18;;
78646;SDS011;67961;43.460;3.762;2023-09-07T06:16:34;15.30;;;3.92;;
78646;SDS011;67961;43.460;3.762;2023-09-07T06:19:00;12.93;;;4.13;;
78646;SDS011;67961;43.460;3.762;2023-09-07T06:21:25;14.98;;;4.55;;
78646;SDS011;67961;43.460;3.762;2023-09-07T06:23:53;14.18;;;3.90;;
78646;SDS011;67961;43.460;3.762;2023-09-07T06:26:18;9.77;;;3.90;;
78646;SDS011;67961;43.460;3.762;2023-09-07T06:28:44;13.38;;;3.72;;
78646;SDS011;67961;43.460;3.762;2023-09-07T06:31:10;18.65;;;4.43;;
78646;SDS011;67961;43.460;3.762;2023-09-07T06:33:36;21.45;;;5.10;;
78646;SDS011;67961;43.460;3.762;2023-09-07T06:36:01;24.00;;;4.93;;
78646;SDS011;67961;43.460;3.762;2023-09-07T06:38:27;25.58;;;4.57;;
78646;SDS011;67961;43.460;3.762;2023-09-07T06:40:53;23.75;;;4.70;;
78646;SDS011;67961;43.460;3.762;2023-09-07T06:43:18;22.88;;;4.93;;
78646;SDS011;67961;43.460;3.762;2023-09-07T06:45:44;17.67;;;4.45;;
78646;SDS011;67961;43.460;3.762;2023-09-07T06:48:10;11.88;;;4.15;;
78646;SDS011;67961;43.460;3.762;2023-09-07T06:50:37;14.10;;;4.25;;
78646;SDS011;67961;43.460;3.762;2023-09-07T06:53:03;12.95;;;4.28;;
78646;SDS011;67961;43.460;3.762;2023-09-07T06:55:29;12.13;;;3.90;;
78646;SDS011;67961;43.460;3.762;2023-09-07T06:57:55;7.47;;;3.40;;
78646;SDS011;67961;43.460;3.762;2023-09-07T07:00:21;8.48;;;4.18;;
78646;SDS011;67961;43.460;3.762;2023-09-07T07:02:46;10.70;;;3.83;;
78646;SDS011;67961;43.460;3.762;2023-09-07T07:05:12;11.55;;;4.00;;
78646;SDS011;67961;43.460;3.762;2023-09-07T07:07:38;14.80;;;4.13;;
78646;SDS011;67961;43.460;3.762;2023-09-07T07:10:04;10.38;;;4.15;;
78646;SDS011;67961;43.460;3.762;2023-09-07T07:12:31;13.43;;;3.97;;
78646;SDS011;67961;43.460;3.762;2023-09-07T07:14:59;16.90;;;3.85;;
78646;SDS011;67961;43.460;3.762;2023-09-07T07:17:26;14.35;;;4.35;;
78646;SDS011;67961;43.460;3.762;2023-09-07T07:19:52;12.50;;;4.35;;
78646;SDS011;67961;43.460;3.762;2023-09-07T07:22:17;16.98;;;4.50;;
78646;SDS011;67961;43.460;3.762;2023-09-07T07:24:43;22.70;;;4.68;;
78646;SDS011;67961;43.460;3.762;2023-09-07T07:27:09;16.42;;;4.30;;
78646;SDS011;67961;43.460;3.762;2023-09-07T07:29:36;10.07;;;3.72;;
78646;SDS011;67961;43.460;3.762;2023-09-07T07:32:02;14.27;;;4.18;;
78646;SDS011;67961;43.460;3.762;2023-09-07T07:34:28;14.07;;;4.15;;
78646;SDS011;67961;43.460;3.762;2023-09-07T07:36:54;15.52;;;4.03;;
78646;SDS011;67961;43.460;3.762;2023-09-07T07:39:20;19.65;;;4.13;;
78646;SDS011;67961;43.460;3.762;2023-09-07T07:41:45;17.58;;;3.97;;
78646;SDS011;67961;43.460;3.762;2023-09-07T07:44:11;11.60;;;3.97;;
78646;SDS011;67961;43.460;3.762;2023-09-07T07:46:37;24.08;;;4.43;;
78646;SDS011;67961;43.460;3.762;2023-09-07T07:49:03;18.90;;;4.25;;
78646;SDS011;67961;43.460;3.762;2023-09-07T07:51:29;24.38;;;4.55;;
78646;SDS011;67961;43.460;3.762;2023-09-07T07:53:54;11.27;;;3.53;;
78646;SDS011;67961;43.460;3.762;2023-09-07T07:56:23;16.83;;;3.80;;
78646;SDS011;67961;43.460;3.762;2023-09-07T07:58:50;14.57;;;3.65;;
78646;SDS011;67961;43.460;3.762;2023-09-07T08:01:16;6.97;;;3.42;;
78646;SDS011;67961;43.460;3.762;2023-09-07T08:03:43;10.38;;;3.45;;
78646;SDS011;67961;43.460;3.762;2023-09-07T08:06:10;6.15;;;3.58;;
78646;SDS011;67961;43.460;3.762;2023-09-07T08:08:36;7.05;;;3.45;;
78646;SDS011;67961;43.460;3.762;2023-09-07T08:11:02;10.40;;;4.57;;
78646;SDS011;67961;43.460;3.762;2023-09-07T08:13:31;8.80;;;3.50;;
78646;SDS011;67961;43.460;3.762;2023-09-07T08:15:58;7.78;;;4.45;;
78646;SDS011;67961;43.460;3.762;2023-09-07T08:18:28;9.00;;;4.15;;
78646;SDS011;67961;43.460;3.762;2023-09-07T08:20:54;7.13;;;3.15;;
78646;SDS011;67961;43.460;3.762;2023-09-07T08:23:20;8.68;;;3.55;;
78646;SDS011;67961;43.460;3.762;2023-09-07T08:25:47;8.15;;;3.38;;
78646;SDS011;67961;43.460;3.762;2023-09-07T08:28:13;9.35;;;3.47;;
78646;SDS011;67961;43.460;3.762;2023-09-07T08:30:39;5.43;;;3.50;;
78646;SDS011;67961;43.460;3.762;2023-09-07T08:33:04;8.68;;;3.60;;
78646;SDS011;67961;43.460;3.762;2023-09-07T08:35:31;10.40;;;3.60;;
78646;SDS011;67961;43.460;3.762;2023-09-07T08:38:00;8.50;;;3.20;;
78646;SDS011;67961;43.460;3.762;2023-09-07T08:40:29;8.77;;;3.53;;
78646;SDS011;67961;43.460;3.762;2023-09-07T08:42:57;14.63;;;4.32;;
78646;SDS011;67961;43.460;3.762;2023-09-07T08:45:28;12.18;;;4.53;;
78646;SDS011;67961;43.460;3.762;2023-09-07T08:47:57;9.63;;;3.42;;
78646;SDS011;67961;43.460;3.762;2023-09-07T08:50:23;10.02;;;4.18;;
78646;SDS011;67961;43.460;3.762;2023-09-07T08:52:51;8.82;;;3.55;;
78646;SDS011;67961;43.460;3.762;2023-09-07T08:55:17;12.02;;;3.35;;
78646;SDS011;67961;43.460;3.762;2023-09-07T08:57:43;14.73;;;4.22;;
78646;SDS011;67961;43.460;3.762;2023-09-07T09:00:10;9.98;;;4.07;;
78646;SDS011;67961;43.460;3.762;2023-09-07T09:02:41;14.23;;;4.40;;
78646;SDS011;67961;43.460;3.762;2023-09-07T09:05:10;8.57;;;4.20;;
78646;SDS011;67961;43.460;3.762;2023-09-07T09:07:39;16.30;;;4.73;;
78646;SDS011;67961;43.460;3.762;2023-09-07T09:10:05;6.80;;;4.65;;
78646;SDS011;67961;43.460;3.762;2023-09-07T09:12:32;10.18;;;3.80;;
78646;SDS011;67961;43.460;3.762;2023-09-07T09:14:59;8.07;;;3.95;;
78646;SDS011;67961;43.460;3.762;2023-09-07T09:17:28;11.20;;;4.22;;
78646;SDS011;67961;43.460;3.762;2023-09-07T09:19:54;12.45;;;4.07;;
78646;SDS011;67961;43.460;3.762;2023-09-07T09:22:19;6.43;;;3.88;;
78646;SDS011;67961;43.460;3.762;2023-09-07T09:24:47;6.35;;;3.67;;
78646;SDS011;67961;43.460;3.762;2023-09-07T09:27:13;6.95;;;3.65;;
78646;SDS011;67961;43.460;3.762;2023-09-07T09:29:39;4.18;;;3.42;;
78646;SDS011;67961;43.460;3.762;2023-09-07T09:32:06;7.50;;;3.78;;
78646;SDS011;67961;43.460;3.762;2023-09-07T09:34:35;8.63;;;3.63;;
78646;SDS011;67961;43.460;3.762;2023-09-07T09:37:02;4.97;;;3.45;;
78646;SDS011;67961;43.460;3.762;2023-09-07T09:39:31;8.50;;;3.80;;
78646;SDS011;67961;43.460;3.762;2023-09-07T09:41:57;5.55;;;3.50;;
78646;SDS011;67961;43.460;3.762;2023-09-07T09:44:24;8.55;;;4.38;;
78646;SDS011;67961;43.460;3.762;2023-09-07T09:46:51;8.35;;;3.33;;
78646;SDS011;67961;43.460;3.762;2023-09-07T09:49:18;6.63;;;3.63;;
78646;SDS011;67961;43.460;3.762;2023-09-07T09:51:47;5.35;;;3.03;;
78646;SDS011;67961;43.460;3.762;2023-09-07T09:54:16;6.40;;;3.15;;
78646;SDS011;67961;43.460;3.762;2023-09-07T09:56:45;8.43;;;2.95;;
78646;SDS011;67961;43.460;3.762;2023-09-07T09:59:14;4.72;;;3.15;;
78646;SDS011;67961;43.460;3.762;2023-09-07T10:01:44;5.78;;;3.22;;
78646;SDS011;67961;43.460;3.762;2023-09-07T10:04:12;4.45;;;3.10;;
78646;SDS011;67961;43.460;3.762;2023-09-07T10:06:49;7.60;;;3.65;;
78646;SDS011;67961;43.460;3.762;2023-09-07T10:09:23;18.65;;;6.93;;
78646;SDS011;67961;43.460;3.762;2023-09-07T10:11:57;28.33;;;11.30;;
78646;SDS011;67961;43.460;3.762;2023-09-07T10:14:24;31.15;;;13.00;;
78646;SDS011;67961;43.460;3.762;2023-09-07T10:16:51;48.92;;;17.55;;
78646;SDS011;67961;43.460;3.762;2023-09-07T10:19:23;15.98;;;6.97;;
78646;SDS011;67961;43.460;3.762;2023-09-07T10:21:50;18.10;;;8.98;;
78646;SDS011;67961;43.460;3.762;2023-09-07T10:24:23;12.48;;;5.55;;
78646;SDS011;67961;43.460;3.762;2023-09-07T10:26:59;11.93;;;4.15;;
78646;SDS011;67961;43.460;3.762;2023-09-07T10:29:39;9.63;;;3.88;;
78646;SDS011;67961;43.460;3.762;2023-09-07T10:32:17;10.48;;;4.35;;
78646;SDS011;67961;43.460;3.762;2023-09-07T10:34:43;8.57;;;4.60;;
78646;SDS011;67961;43.460;3.762;2023-09-07T10:37:09;11.00;;;5.57;;
78646;SDS011;67961;43.460;3.762;2023-09-07T10:39:37;5.90;;;3.97;;
78646;SDS011;67961;43.460;3.762;2023-09-07T10:45:11;6.88;;;3.88;;
78646;SDS011;67961;43.460;3.762;2023-09-07T10:47:44;8.23;;;4.00;;
78646;SDS011;67961;43.460;3.762;2023-09-07T10:50:13;4.80;;;3.03;;
78646;SDS011;67961;43.460;3.762;2023-09-07T10:52:39;9.00;;;4.25;;
78646;SDS011;67961;43.460;3.762;2023-09-07T10:55:07;6.45;;;3.42;;
78646;SDS011;67961;43.460;3.762;2023-09-07T10:57:42;5.60;;;3.15;;
78646;SDS011;67961;43.460;3.762;2023-09-07T11:00:10;7.22;;;3.63;;
78646;SDS011;67961;43.460;3.762;2023-09-07T11:02:37;6.75;;;3.92;;
78646;SDS011;67961;43.460;3.762;2023-09-07T11:05:03;5.95;;;3.30;;
78646;SDS011;67961;43.460;3.762;2023-09-07T11:07:29;7.93;;;4.47;;
78646;SDS011;67961;43.460;3.762;2023-09-07T11:09:55;5.28;;;3.15;;
78646;SDS011;67961;43.460;3.762;2023-09-07T11:12:21;5.53;;;2.92;;
78646;SDS011;67961;43.460;3.762;2023-09-07T11:14:47;3.78;;;2.90;;
78646;SDS011;67961;43.460;3.762;2023-09-07T11:17:16;4.95;;;3.35;;
78646;SDS011;67961;43.460;3.762;2023-09-07T11:19:42;7.72;;;3.85;;
78646;SDS011;67961;43.460;3.762;2023-09-07T11:22:11;6.25;;;3.22;;
78646;SDS011;67961;43.460;3.762;2023-09-07T11:24:36;6.75;;;3.05;;
78646;SDS011;67961;43.460;3.762;2023-09-07T11:27:02;7.18;;;3.10;;
78646;SDS011;67961;43.460;3.762;2023-09-07T11:29:30;5.15;;;2.72;;
78646;SDS011;67961;43.460;3.762;2023-09-07T11:32:07;7.53;;;4.25;;
78646;SDS011;67961;43.460;3.762;2023-09-07T11:34:33;5.57;;;3.63;;
78646;SDS011;67961;43.460;3.762;2023-09-07T11:37:02;8.18;;;3.20;;
78646;SDS011;67961;43.460;3.762;2023-09-07T11:39:28;5.50;;;2.90;;
78646;SDS011;67961;43.460;3.762;2023-09-07T11:41:54;6.15;;;3.28;;
78646;SDS011;67961;43.460;3.762;2023-09-07T11:44:20;5.13;;;2.80;;
78646;SDS011;67961;43.460;3.762;2023-09-07T11:46:46;5.05;;;2.85;;
78646;SDS011;67961;43.460;3.762;2023-09-07T11:49:11;6.85;;;3.30;;
78646;SDS011;67961;43.460;3.762;2023-09-07T11:51:37;7.65;;;3.30;;
78646;SDS011;67961;43.460;3.762;2023-09-07T11:54:03;6.20;;;3.60;;
78646;SDS011;67961;43.460;3.762;2023-09-07T11:56:29;4.97;;;3.38;;
78646;SDS011;67961;43.460;3.762;2023-09-07T11:58:55;9.02;;;3.47;;
78646;SDS011;67961;43.460;3.762;2023-09-07T12:01:21;5.53;;;3.65;;
78646;SDS011;67961;43.460;3.762;2023-09-07T12:03:46;9.60;;;3.30;;
78646;SDS011;67961;43.460;3.762;2023-09-07T12:06:12;6.50;;;3.30;;
78646;SDS011;67961;43.460;3.762;2023-09-07T12:08:42;5.35;;;3.28;;
78646;SDS011;67961;43.460;3.762;2023-09-07T12:11:22;4.65;;;3.47;;
78646;SDS011;67961;43.460;3.762;2023-09-07T12:13:48;5.20;;;3.53;;
78646;SDS011;67961;43.460;3.762;2023-09-07T12:16:13;5.97;;;3.78;;
78646;SDS011;67961;43.460;3.762;2023-09-07T12:18:39;4.85;;;3.20;;
78646;SDS011;67961;43.460;3.762;2023-09-07T12:21:05;8.85;;;4.18;;
78646;SDS011;67961;43.460;3.762;2023-09-07T12:23:31;5.63;;;3.55;;
78646;SDS011;67961;43.460;3.762;2023-09-07T12:25:56;5.65;;;3.35;;
78646;SDS011;67961;43.460;3.762;2023-09-07T12:28:22;7.30;;;3.55;;
78646;SDS011;67961;43.460;3.762;2023-09-07T12:30:48;6.35;;;3.42;;
78646;SDS011;67961;43.460;3.762;2023-09-07T12:33:14;4.80;;;2.85;;
78646;SDS011;67961;43.460;3.762;2023-09-07T12:35:39;6.63;;;3.58;;
78646;SDS011;67961;43.460;3.762;2023-09-07T12:38:05;11.77;;;3.85;;
78646;SDS011;67961;43.460;3.762;2023-09-07T12:40:32;6.32;;;3.70;;
78646;SDS011;67961;43.460;3.762;2023-09-07T12:42:57;6.20;;;2.88;;
78646;SDS011;67961;43.460;3.762;2023-09-07T12:45:23;8.40;;;3.60;;
78646;SDS011;67961;43.460;3.762;2023-09-07T12:47:49;9.35;;;3.60;;
78646;SDS011;67961;43.460;3.762;2023-09-07T12:50:14;11.05;;;3.90;;
78646;SDS011;67961;43.460;3.762;2023-09-07T12:52:40;6.18;;;3.65;;
78646;SDS011;67961;43.460;3.762;2023-09-07T12:55:06;6.57;;;4.20;;
78646;SDS011;67961;43.460;3.762;2023-09-07T12:57:32;8.48;;;3.65;;
78646;SDS011;67961;43.460;3.762;2023-09-07T12:59:59;7.38;;;4.25;;
78646;SDS011;67961;43.460;3.762;2023-09-07T13:02:25;5.68;;;3.30;;
78646;SDS011;67961;43.460;3.762;2023-09-07T13:04:50;10.20;;;3.78;;
78646;SDS011;67961;43.460;3.762;2023-09-07T13:07:16;8.23;;;3.92;;
78646;SDS011;67961;43.460;3.762;2023-09-07T13:09:45;7.28;;;3.55;;
78646;SDS011;67961;43.460;3.762;2023-09-07T13:12:10;5.20;;;3.83;;
78646;SDS011;67961;43.460;3.762;2023-09-07T13:14:36;10.60;;;4.35;;
78646;SDS011;67961;43.460;3.762;2023-09-07T13:17:02;6.05;;;3.50;;
78646;SDS011;67961;43.460;3.762;2023-09-07T13:19:28;7.15;;;3.70;;
78646;SDS011;67961;43.460;3.762;2023-09-07T13:21:56;8.73;;;3.38;;
78646;SDS011;67961;43.460;3.762;2023-09-07T13:24:21;8.02;;;4.30;;
78646;SDS011;67961;43.460;3.762;2023-09-07T13:26:48;9.57;;;3.88;;
78646;SDS011;67961;43.460;3.762;2023-09-07T13:29:16;7.10;;;3.72;;
78646;SDS011;67961;43.460;3.762;2023-09-07T13:31:41;8.07;;;3.45;;
78646;SDS011;67961;43.460;3.762;2023-09-07T13:34:07;7.32;;;3.72;;
78646;SDS011;67961;43.460;3.762;2023-09-07T13:36:32;8.23;;;4.10;;
78646;SDS011;67961;43.460;3.762;2023-09-07T13:38:58;7.50;;;3.92;;
78646;SDS011;67961;43.460;3.762;2023-09-07T13:41:24;4.95;;;3.30;;
78646;SDS011;67961;43.460;3.762;2023-09-07T13:43:50;5.25;;;3.58;;
78646;SDS011;67961;43.460;3.762;2023-09-07T13:46:16;8.48;;;3.58;;
78646;SDS011;67961;43.460;3.762;2023-09-07T13:48:42;4.78;;;3.38;;
78646;SDS011;67961;43.460;3.762;2023-09-07T13:51:07;8.20;;;4.20;;
78646;SDS011;67961;43.460;3.762;2023-09-07T13:53:33;6.07;;;3.40;;
78646;SDS011;67961;43.460;3.762;2023-09-07T13:56:01;6.15;;;3.58;;
78646;SDS011;67961;43.460;3.762;2023-09-07T13:58:27;7.20;;;3.45;;
78646;SDS011;67961;43.460;3.762;2023-09-07T14:00:56;7.05;;;3.72;;
78646;SDS011;67961;43.460;3.762;2023-09-07T14:03:22;17.70;;;3.30;;
78646;SDS011;67961;43.460;3.762;2023-09-07T14:05:50;7.82;;;3.33;;
78646;SDS011;67961;43.460;3.762;2023-09-07T14:08:15;8.00;;;3.30;;
78646;SDS011;67961;43.460;3.762;2023-09-07T14:10:42;5.78;;;3.78;;
78646;SDS011;67961;43.460;3.762;2023-09-07T14:13:07;5.63;;;2.88;;
78646;SDS011;67961;43.460;3.762;2023-09-07T14:15:33;4.47;;;2.95;;
78646;SDS011;67961;43.460;3.762;2023-09-07T14:17:59;6.25;;;2.95;;
78646;SDS011;67961;43.460;3.762;2023-09-07T14:20:26;5.07;;;3.22;;
78646;SDS011;67961;43.460;3.762;2023-09-07T14:22:52;4.10;;;2.63;;
78646;SDS011;67961;43.460;3.762;2023-09-07T14:25:21;9.77;;;3.00;;
78646;SDS011;67961;43.460;3.762;2023-09-07T14:27:47;7.28;;;2.83;;
78646;SDS011;67961;43.460;3.762;2023-09-07T14:30:12;8.32;;;3.53;;
78646;SDS011;67961;43.460;3.762;2023-09-07T14:32:38;7.47;;;2.70;;
78646;SDS011;67961;43.460;3.762;2023-09-07T14:35:04;8.20;;;2.92;;
78646;SDS011;67961;43.460;3.762;2023-09-07T14:37:30;5.95;;;3.42;;
78646;SDS011;67961;43.460;3.762;2023-09-07T14:39:56;7.85;;;2.95;;
78646;SDS011;67961;43.460;3.762;2023-09-07T14:42:24;4.75;;;3.28;;